sensor_id;sensor_type;location;lat;lon;timestamp;temperature;humidity
2112;DHT22;1062;52.538;13.400;2023-05-07T00:01:39;8.80;99.90
2112;DHT22;1062;52.538;13.400;2023-05-07T00:04:05;8.80;99.90
2112;DHT22;1062;52.538;13.400;2023-05-07T00:06:32;8.80;99.90
2112;DHT22;1062;52.538;13.400;2023-05-07T00:08:58;8.80;99.90
2112;DHT22;1062;52.538;13.400;2023-05-07T00:11:24;8.80;99.90
2112;DHT22;1062;52.538;13.400;2023-05-07T00:13:51;8.80;99.90
2112;DHT22;1062;52.538;13.400;2023-05-07T00:16:16;8.80;99.90
2112;DHT22;1062;52.538;13.400;2023-05-07T00:18:42;8.80;99.90
2112;DHT22;1062;52.538;13.400;2023-05-07T00:21:07;8.80;99.90
2112;DHT22;1062;52.538;13.400;2023-05-07T00:23:33;8.80;99.90
2112;DHT22;1062;52.538;13.400;2023-05-07T00:25:59;8.90;99.90
2112;DHT22;1062;52.538;13.400;2023-05-07T00:28:24;8.80;99.90
2112;DHT22;1062;52.538;13.400;2023-05-07T00:30:50;8.90;99.90
2112;DHT22;1062;52.538;13.400;2023-05-07T00:33:15;8.90;99.90
2112;DHT22;1062;52.538;13.400;2023-05-07T00:35:42;8.90;99.90
2112;DHT22;1062;52.538;13.400;2023-05-07T00:38:07;8.90;99.90
2112;DHT22;1062;52.538;13.400;2023-05-07T00:40:33;8.90;99.90
2112;DHT22;1062;52.538;13.400;2023-05-07T00:42:59;8.80;99.90
2112;DHT22;1062;52.538;13.400;2023-05-07T00:45:28;8.80;99.90
2112;DHT22;1062;52.538;13.400;2023-05-07T00:47:55;8.80;99.90
2112;DHT22;1062;52.538;13.400;2023-05-07T00:50:21;8.70;99.90
2112;DHT22;1062;52.538;13.400;2023-05-07T00:52:47;8.70;99.90
2112;DHT22;1062;52.538;13.400;2023-05-07T00:55:13;8.70;99.90
2112;DHT22;1062;52.538;13.400;2023-05-07T00:57:40;8.70;99.90
2112;DHT22;1062;52.538;13.400;2023-05-07T01:00:08;8.70;99.90
2112;DHT22;1062;52.538;13.400;2023-05-07T01:02:41;8.80;99.90
2112;DHT22;1062;52.538;13.400;2023-05-07T01:05:10;8.80;99.90
2112;DHT22;1062;52.538;13.400;2023-05-07T01:07:37;8.80;99.90
2112;DHT22;1062;52.538;13.400;2023-05-07T01:10:05;8.70;99.90
2112;DHT22;1062;52.538;13.400;2023-05-07T01:12:31;8.70;99.90
2112;DHT22;1062;52.538;13.400;2023-05-07T01:14:58;8.80;99.90
2112;DHT22;1062;52.538;13.400;2023-05-07T01:17:23;8.70;99.90
2112;DHT22;1062;52.538;13.400;2023-05-07T01:19:49;8.80;99.90
2112;DHT22;1062;52.538;13.400;2023-05-07T01:22:16;8.70;99.90
2112;DHT22;1062;52.538;13.400;2023-05-07T01:24:44;8.80;99.90
2112;DHT22;1062;52.538;13.400;2023-05-07T01:27:09;8.80;99.90
2112;DHT22;1062;52.538;13.400;2023-05-07T01:29:35;8.80;99.90
2112;DHT22;1062;52.538;13.400;2023-05-07T01:32:01;8.80;99.90
2112;DHT22;1062;52.538;13.400;2023-05-07T01:34:31;8.80;99.90
2112;DHT22;1062;52.538;13.400;2023-05-07T01:36:59;8.80;99.90
2112;DHT22;1062;52.538;13.400;2023-05-07T01:39:25;8.80;99.90
2112;DHT22;1062;52.538;13.400;2023-05-07T01:41:53;8.80;99.90
2112;DHT22;1062;52.538;13.400;2023-05-07T01:44:20;8.80;99.90
2112;DHT22;1062;52.538;13.400;2023-05-07T01:46:46;8.80;99.90
2112;DHT22;1062;52.538;13.400;2023-05-07T01:49:12;8.80;99.90
2112;DHT22;1062;52.538;13.400;2023-05-07T01:51:39;8.80;99.90
2112;DHT22;1062;52.538;13.400;2023-05-07T01:54:05;8.80;99.90
2112;DHT22;1062;52.538;13.400;2023-05-07T01:56:32;8.80;99.90
2112;DHT22;1062;52.538;13.400;2023-05-07T01:58:57;8.80;99.90
2112;DHT22;1062;52.538;13.400;2023-05-07T02:01:23;8.80;99.90
2112;DHT22;1062;52.538;13.400;2023-05-07T02:03:49;8.70;99.90
2112;DHT22;1062;52.538;13.400;2023-05-07T02:06:14;8.70;99.90
2112;DHT22;1062;52.538;13.400;2023-05-07T02:08:40;8.80;99.90
2112;DHT22;1062;52.538;13.400;2023-05-07T02:11:06;8.80;99.90
2112;DHT22;1062;52.538;13.400;2023-05-07T02:13:33;8.80;99.90
2112;DHT22;1062;52.538;13.400;2023-05-07T02:16:00;8.80;99.90
2112;DHT22;1062;52.538;13.400;2023-05-07T02:18:25;8.80;99.90
2112;DHT22;1062;52.538;13.400;2023-05-07T02:20:51;8.80;99.90
2112;DHT22;1062;52.538;13.400;2023-05-07T02:23:16;8.80;99.90
2112;DHT22;1062;52.538;13.400;2023-05-07T02:25:42;8.80;99.90
2112;DHT22;1062;52.538;13.400;2023-05-07T02:28:07;8.80;99.90
2112;DHT22;1062;52.538;13.400;2023-05-07T02:30:33;8.80;99.90
2112;DHT22;1062;52.538;13.400;2023-05-07T02:32:59;8.80;99.90
2112;DHT22;1062;52.538;13.400;2023-05-07T02:35:25;8.80;99.90
2112;DHT22;1062;52.538;13.400;2023-05-07T02:37:51;8.80;99.90
2112;DHT22;1062;52.538;13.400;2023-05-07T02:40:17;8.80;99.90
2112;DHT22;1062;52.538;13.400;2023-05-07T02:42:42;8.80;99.90
2112;DHT22;1062;52.538;13.400;2023-05-07T02:45:08;8.80;99.90
2112;DHT22;1062;52.538;13.400;2023-05-07T02:47:34;8.80;99.90
2112;DHT22;1062;52.538;13.400;2023-05-07T02:50:00;8.80;99.90
2112;DHT22;1062;52.538;13.400;2023-05-07T02:52:25;8.70;99.90
2112;DHT22;1062;52.538;13.400;2023-05-07T02:54:51;8.70;99.90
2112;DHT22;1062;52.538;13.400;2023-05-07T02:57:17;8.70;99.90
2112;DHT22;1062;52.538;13.400;2023-05-07T02:59:43;8.70;99.90
2112;DHT22;1062;52.538;13.400;2023-05-07T03:02:08;8.80;99.90
2112;DHT22;1062;52.538;13.400;2023-05-07T03:04:34;8.70;99.90
2112;DHT22;1062;52.538;13.400;2023-05-07T03:07:00;8.70;99.90
2112;DHT22;1062;52.538;13.400;2023-05-07T03:09:25;8.70;99.90
2112;DHT22;1062;52.538;13.400;2023-05-07T03:11:51;8.70;99.90
2112;DHT22;1062;52.538;13.400;2023-05-07T03:14:17;8.70;99.90
2112;DHT22;1062;52.538;13.400;2023-05-07T03:16:42;8.80;99.90
2112;DHT22;1062;52.538;13.400;2023-05-07T03:19:08;8.80;99.90
2112;DHT22;1062;52.538;13.400;2023-05-07T03:21:34;8.80;99.90
2112;DHT22;1062;52.538;13.400;2023-05-07T03:24:00;8.80;99.90
2112;DHT22;1062;52.538;13.400;2023-05-07T03:26:26;8.80;99.90
2112;DHT22;1062;52.538;13.400;2023-05-07T03:28:51;8.70;99.90
2112;DHT22;1062;52.538;13.400;2023-05-07T03:31:17;8.70;99.90
2112;DHT22;1062;52.538;13.400;2023-05-07T03:33:54;8.70;99.90
2112;DHT22;1062;52.538;13.400;2023-05-07T03:36:21;8.70;99.90
2112;DHT22;1062;52.538;13.400;2023-05-07T03:38:47;8.80;99.90
2112;DHT22;1062;52.538;13.400;2023-05-07T03:41:13;8.70;99.90
2112;DHT22;1062;52.538;13.400;2023-05-07T03:43:39;8.70;99.90
2112;DHT22;1062;52.538;13.400;2023-05-07T03:46:04;8.70;99.90
2112;DHT22;1062;52.538;13.400;2023-05-07T03:48:30;8.70;99.90
2112;DHT22;1062;52.538;13.400;2023-05-07T03:50:57;8.70;99.90
2112;DHT22;1062;52.538;13.400;2023-05-07T03:53:22;8.70;99.90
2112;DHT22;1062;52.538;13.400;2023-05-07T03:55:48;8.70;99.90
2112;DHT22;1062;52.538;13.400;2023-05-07T03:58:14;8.60;99.90
2112;DHT22;1062;52.538;13.400;2023-05-07T04:00:39;8.60;99.90
2112;DHT22;1062;52.538;13.400;2023-05-07T04:03:06;8.60;99.90
2112;DHT22;1062;52.538;13.400;2023-05-07T04:05:31;8.60;99.90
2112;DHT22;1062;52.538;13.400;2023-05-07T04:08:00;8.60;99.90
2112;DHT22;1062;52.538;13.400;2023-05-07T04:10:26;8.60;99.90
2112;DHT22;1062;52.538;13.400;2023-05-07T04:12:51;8.60;99.90
2112;DHT22;1062;52.538;13.400;2023-05-07T04:15:17;8.60;99.90
2112;DHT22;1062;52.538;13.400;2023-05-07T04:17:42;8.60;99.90
2112;DHT22;1062;52.538;13.400;2023-05-07T04:20:15;8.60;99.90
2112;DHT22;1062;52.538;13.400;2023-05-07T04:22:41;8.60;99.90
2112;DHT22;1062;52.538;13.400;2023-05-07T04:25:07;8.60;99.90
2112;DHT22;1062;52.538;13.400;2023-05-07T04:27:34;8.60;99.90
2112;DHT22;1062;52.538;13.400;2023-05-07T04:30:00;8.60;99.90
2112;DHT22;1062;52.538;13.400;2023-05-07T04:32:26;8.60;99.90
2112;DHT22;1062;52.538;13.400;2023-05-07T04:34:51;8.60;99.90
2112;DHT22;1062;52.538;13.400;2023-05-07T04:37:17;8.70;99.90
2112;DHT22;1062;52.538;13.400;2023-05-07T04:39:43;8.70;99.90
2112;DHT22;1062;52.538;13.400;2023-05-07T04:42:08;8.70;99.90
2112;DHT22;1062;52.538;13.400;2023-05-07T04:44:34;8.70;99.90
2112;DHT22;1062;52.538;13.400;2023-05-07T04:47:00;8.70;99.90
2112;DHT22;1062;52.538;13.400;2023-05-07T04:49:26;8.70;99.90
2112;DHT22;1062;52.538;13.400;2023-05-07T04:51:51;8.70;99.90
2112;DHT22;1062;52.538;13.400;2023-05-07T04:54:17;8.80;99.90
2112;DHT22;1062;52.538;13.400;2023-05-07T04:56:43;8.80;99.90
2112;DHT22;1062;52.538;13.400;2023-05-07T04:59:08;8.80;99.90
2112;DHT22;1062;52.538;13.400;2023-05-07T05:01:34;8.80;99.90
2112;DHT22;1062;52.538;13.400;2023-05-07T05:04:00;8.80;99.90
2112;DHT22;1062;52.538;13.400;2023-05-07T05:06:25;8.90;99.90
2112;DHT22;1062;52.538;13.400;2023-05-07T05:08:51;8.90;99.90
2112;DHT22;1062;52.538;13.400;2023-05-07T05:11:17;8.90;99.90
2112;DHT22;1062;52.538;13.400;2023-05-07T05:13:43;9.00;99.90
2112;DHT22;1062;52.538;13.400;2023-05-07T05:16:08;9.00;99.90
2112;DHT22;1062;52.538;13.400;2023-05-07T05:18:34;9.10;99.90
2112;DHT22;1062;52.538;13.400;2023-05-07T05:21:00;9.30;99.90
2112;DHT22;1062;52.538;13.400;2023-05-07T05:23:26;9.40;99.90
2112;DHT22;1062;52.538;13.400;2023-05-07T05:25:56;9.50;99.90
2112;DHT22;1062;52.538;13.400;2023-05-07T05:28:22;9.50;99.90
2112;DHT22;1062;52.538;13.400;2023-05-07T05:30:48;9.50;99.90
2112;DHT22;1062;52.538;13.400;2023-05-07T05:33:14;9.50;99.90
2112;DHT22;1062;52.538;13.400;2023-05-07T05:35:40;9.60;99.90
2112;DHT22;1062;52.538;13.400;2023-05-07T05:38:05;9.50;99.90
2112;DHT22;1062;52.538;13.400;2023-05-07T05:40:31;9.60;99.90
2112;DHT22;1062;52.538;13.400;2023-05-07T05:42:57;9.60;99.90
2112;DHT22;1062;52.538;13.400;2023-05-07T05:45:23;9.70;99.90
2112;DHT22;1062;52.538;13.400;2023-05-07T05:47:48;9.70;99.90
2112;DHT22;1062;52.538;13.400;2023-05-07T05:50:14;9.70;99.90
2112;DHT22;1062;52.538;13.400;2023-05-07T05:52:40;9.80;99.90
2112;DHT22;1062;52.538;13.400;2023-05-07T05:55:06;10.00;99.90
2112;DHT22;1062;52.538;13.400;2023-05-07T05:57:32;10.30;99.90
2112;DHT22;1062;52.538;13.400;2023-05-07T05:59:58;10.40;99.90
2112;DHT22;1062;52.538;13.400;2023-05-07T06:02:23;10.30;99.90
2112;DHT22;1062;52.538;13.400;2023-05-07T06:04:49;10.70;99.90
2112;DHT22;1062;52.538;13.400;2023-05-07T06:07:14;10.80;99.90
2112;DHT22;1062;52.538;13.400;2023-05-07T06:09:40;10.80;99.90
2112;DHT22;1062;52.538;13.400;2023-05-07T06:12:05;10.60;99.90
2112;DHT22;1062;52.538;13.400;2023-05-07T06:14:31;10.70;99.90
2112;DHT22;1062;52.538;13.400;2023-05-07T06:16:57;10.80;99.90
2112;DHT22;1062;52.538;13.400;2023-05-07T06:19:23;10.90;99.90
2112;DHT22;1062;52.538;13.400;2023-05-07T06:21:49;10.80;99.90
2112;DHT22;1062;52.538;13.400;2023-05-07T06:24:15;10.80;99.90
2112;DHT22;1062;52.538;13.400;2023-05-07T06:26:41;10.90;99.90
2112;DHT22;1062;52.538;13.400;2023-05-07T06:29:06;10.70;99.90
2112;DHT22;1062;52.538;13.400;2023-05-07T06:31:32;10.60;99.90
2112;DHT22;1062;52.538;13.400;2023-05-07T06:33:58;10.60;99.90
2112;DHT22;1062;52.538;13.400;2023-05-07T06:36:24;10.80;99.90
2112;DHT22;1062;52.538;13.400;2023-05-07T06:38:50;10.90;99.90
2112;DHT22;1062;52.538;13.400;2023-05-07T06:41:15;10.80;99.90
2112;DHT22;1062;52.538;13.400;2023-05-07T06:43:41;10.60;99.90
2112;DHT22;1062;52.538;13.400;2023-05-07T06:46:07;10.50;99.90
2112;DHT22;1062;52.538;13.400;2023-05-07T06:48:32;10.80;99.90
2112;DHT22;1062;52.538;13.400;2023-05-07T06:50:58;11.00;99.90
2112;DHT22;1062;52.538;13.400;2023-05-07T06:53:24;11.10;99.90
2112;DHT22;1062;52.538;13.400;2023-05-07T06:55:49;11.20;99.90
2112;DHT22;1062;52.538;13.400;2023-05-07T06:58:15;11.50;99.90
2112;DHT22;1062;52.538;13.400;2023-05-07T07:00:41;11.70;99.90
2112;DHT22;1062;52.538;13.400;2023-05-07T07:03:06;11.90;99.90
2112;DHT22;1062;52.538;13.400;2023-05-07T07:05:32;11.90;99.90
2112;DHT22;1062;52.538;13.400;2023-05-07T07:07:58;12.00;99.90
2112;DHT22;1062;52.538;13.400;2023-05-07T07:10:24;12.70;99.90
2112;DHT22;1062;52.538;13.400;2023-05-07T07:12:49;13.50;99.90
2112;DHT22;1062;52.538;13.400;2023-05-07T07:15:15;13.90;99.90
2112;DHT22;1062;52.538;13.400;2023-05-07T07:17:41;14.50;99.90
2112;DHT22;1062;52.538;13.400;2023-05-07T07:20:07;14.30;99.90
2112;DHT22;1062;52.538;13.400;2023-05-07T07:22:33;14.90;99.90
2112;DHT22;1062;52.538;13.400;2023-05-07T07:24:58;16.10;99.90
2112;DHT22;1062;52.538;13.400;2023-05-07T07:27:24;16.20;99.90
2112;DHT22;1062;52.538;13.400;2023-05-07T07:29:50;16.70;99.90
2112;DHT22;1062;52.538;13.400;2023-05-07T07:32:16;17.40;99.90
2112;DHT22;1062;52.538;13.400;2023-05-07T07:34:41;17.70;99.90
2112;DHT22;1062;52.538;13.400;2023-05-07T07:37:07;18.10;99.90
2112;DHT22;1062;52.538;13.400;2023-05-07T07:39:33;18.10;99.90
2112;DHT22;1062;52.538;13.400;2023-05-07T07:41:58;18.30;99.90
2112;DHT22;1062;52.538;13.400;2023-05-07T07:44:24;18.60;99.90
2112;DHT22;1062;52.538;13.400;2023-05-07T07:46:50;18.40;99.90
2112;DHT22;1062;52.538;13.400;2023-05-07T07:49:18;18.20;99.90
2112;DHT22;1062;52.538;13.400;2023-05-07T07:51:43;18.10;99.90
2112;DHT22;1062;52.538;13.400;2023-05-07T07:54:09;17.50;99.90
2112;DHT22;1062;52.538;13.400;2023-05-07T07:56:35;17.90;99.90
2112;DHT22;1062;52.538;13.400;2023-05-07T07:59:01;17.70;99.90
2112;DHT22;1062;52.538;13.400;2023-05-07T08:01:27;17.60;99.90
2112;DHT22;1062;52.538;13.400;2023-05-07T08:03:53;17.50;99.90
2112;DHT22;1062;52.538;13.400;2023-05-07T08:06:19;16.80;99.90
2112;DHT22;1062;52.538;13.400;2023-05-07T08:08:45;16.80;99.90
2112;DHT22;1062;52.538;13.400;2023-05-07T08:11:10;16.80;99.90
2112;DHT22;1062;52.538;13.400;2023-05-07T08:13:36;17.10;99.90
2112;DHT22;1062;52.538;13.400;2023-05-07T08:16:03;16.90;99.90
2112;DHT22;1062;52.538;13.400;2023-05-07T08:18:29;17.20;99.90
2112;DHT22;1062;52.538;13.400;2023-05-07T08:20:55;16.80;99.90
2112;DHT22;1062;52.538;13.400;2023-05-07T08:23:21;16.80;99.90
2112;DHT22;1062;52.538;13.400;2023-05-07T08:25:47;16.90;99.90
2112;DHT22;1062;52.538;13.400;2023-05-07T08:28:13;17.40;99.90
2112;DHT22;1062;52.538;13.400;2023-05-07T08:30:39;17.40;99.90
2112;DHT22;1062;52.538;13.400;2023-05-07T08:33:04;18.10;99.90
2112;DHT22;1062;52.538;13.400;2023-05-07T08:35:30;17.80;99.90
2112;DHT22;1062;52.538;13.400;2023-05-07T08:37:55;17.50;99.90
2112;DHT22;1062;52.538;13.400;2023-05-07T08:40:26;17.90;99.90
2112;DHT22;1062;52.538;13.400;2023-05-07T08:42:55;17.40;99.90
2112;DHT22;1062;52.538;13.400;2023-05-07T08:45:22;17.80;99.90
2112;DHT22;1062;52.538;13.400;2023-05-07T08:47:52;18.20;99.90
2112;DHT22;1062;52.538;13.400;2023-05-07T08:50:20;17.60;99.90
2112;DHT22;1062;52.538;13.400;2023-05-07T08:52:47;17.20;99.90
2112;DHT22;1062;52.538;13.400;2023-05-07T08:55:13;17.80;99.90
2112;DHT22;1062;52.538;13.400;2023-05-07T08:57:38;17.60;99.90
2112;DHT22;1062;52.538;13.400;2023-05-07T09:00:05;17.20;99.90
2112;DHT22;1062;52.538;13.400;2023-05-07T09:02:32;17.40;99.90
2112;DHT22;1062;52.538;13.400;2023-05-07T09:04:58;17.90;99.90
2112;DHT22;1062;52.538;13.400;2023-05-07T09:07:25;18.00;99.90
2112;DHT22;1062;52.538;13.400;2023-05-07T09:09:51;18.50;99.90
2112;DHT22;1062;52.538;13.400;2023-05-07T09:12:18;18.80;99.90
2112;DHT22;1062;52.538;13.400;2023-05-07T09:14:44;18.80;99.90
2112;DHT22;1062;52.538;13.400;2023-05-07T09:17:11;18.80;99.90
2112;DHT22;1062;52.538;13.400;2023-05-07T09:19:36;19.30;99.90
2112;DHT22;1062;52.538;13.400;2023-05-07T09:22:04;18.90;99.90
2112;DHT22;1062;52.538;13.400;2023-05-07T09:24:31;18.60;99.90
2112;DHT22;1062;52.538;13.400;2023-05-07T09:27:01;18.00;99.90
2112;DHT22;1062;52.538;13.400;2023-05-07T09:29:28;17.20;99.90
2112;DHT22;1062;52.538;13.400;2023-05-07T09:31:55;16.70;99.90
2112;DHT22;1062;52.538;13.400;2023-05-07T09:34:21;16.80;99.90
2112;DHT22;1062;52.538;13.400;2023-05-07T09:36:47;17.40;99.90
2112;DHT22;1062;52.538;13.400;2023-05-07T09:39:13;17.60;99.90
2112;DHT22;1062;52.538;13.400;2023-05-07T09:41:48;17.90;99.90
2112;DHT22;1062;52.538;13.400;2023-05-07T09:44:15;17.70;99.90
2112;DHT22;1062;52.538;13.400;2023-05-07T09:46:43;17.60;99.90
2112;DHT22;1062;52.538;13.400;2023-05-07T09:49:16;17.50;99.90
2112;DHT22;1062;52.538;13.400;2023-05-07T09:51:49;16.90;99.90
2112;DHT22;1062;52.538;13.400;2023-05-07T09:54:16;16.40;99.90
2112;DHT22;1062;52.538;13.400;2023-05-07T09:56:45;16.50;99.90
2112;DHT22;1062;52.538;13.400;2023-05-07T09:59:13;15.90;99.90
2112;DHT22;1062;52.538;13.400;2023-05-07T10:01:42;15.60;99.90
2112;DHT22;1062;52.538;13.400;2023-05-07T10:04:08;15.50;99.90
2112;DHT22;1062;52.538;13.400;2023-05-07T10:06:35;15.50;99.90
2112;DHT22;1062;52.538;13.400;2023-05-07T10:09:02;15.30;99.90
2112;DHT22;1062;52.538;13.400;2023-05-07T10:11:28;15.30;99.90
2112;DHT22;1062;52.538;13.400;2023-05-07T10:13:54;15.30;99.90
2112;DHT22;1062;52.538;13.400;2023-05-07T10:16:21;15.40;99.90
2112;DHT22;1062;52.538;13.400;2023-05-07T10:18:47;15.40;99.90
2112;DHT22;1062;52.538;13.400;2023-05-07T10:21:18;15.70;99.90
2112;DHT22;1062;52.538;13.400;2023-05-07T10:23:50;15.90;99.90
2112;DHT22;1062;52.538;13.400;2023-05-07T10:26:17;16.40;99.90
2112;DHT22;1062;52.538;13.400;2023-05-07T10:28:53;16.70;99.90
2112;DHT22;1062;52.538;13.400;2023-05-07T10:34:09;16.40;99.90
2112;DHT22;1062;52.538;13.400;2023-05-07T10:36:36;16.30;99.90
2112;DHT22;1062;52.538;13.400;2023-05-07T10:39:02;15.60;99.90
2112;DHT22;1062;52.538;13.400;2023-05-07T10:41:28;15.60;99.90
2112;DHT22;1062;52.538;13.400;2023-05-07T10:43:53;15.90;99.90
2112;DHT22;1062;52.538;13.400;2023-05-07T10:46:20;16.20;99.90
2112;DHT22;1062;52.538;13.400;2023-05-07T10:51:29;15.80;99.90
2112;DHT22;1062;52.538;13.400;2023-05-07T10:56:42;15.60;99.90
2112;DHT22;1062;52.538;13.400;2023-05-07T11:02:05;15.80;99.90
2112;DHT22;1062;52.538;13.400;2023-05-07T11:04:32;15.60;99.90
2112;DHT22;1062;52.538;13.400;2023-05-07T11:10:01;15.80;99.90
2112;DHT22;1062;52.538;13.400;2023-05-07T11:15:08;15.80;99.90
2112;DHT22;1062;52.538;13.400;2023-05-07T11:17:55;15.50;99.90
2112;DHT22;1062;52.538;13.400;2023-05-07T11:20:21;15.50;99.90
2112;DHT22;1062;52.538;13.400;2023-05-07T11:23:06;15.60;99.90
2112;DHT22;1062;52.538;13.400;2023-05-07T11:25:32;15.60;99.90
2112;DHT22;1062;52.538;13.400;2023-05-07T11:28:07;15.30;99.90
2112;DHT22;1062;52.538;13.400;2023-05-07T11:30:35;15.20;99.90
2112;DHT22;1062;52.538;13.400;2023-05-07T11:33:01;15.30;99.90
2112;DHT22;1062;52.538;13.400;2023-05-07T11:35:27;15.40;99.90
2112;DHT22;1062;52.538;13.400;2023-05-07T11:37:59;15.30;99.90
2112;DHT22;1062;52.538;13.400;2023-05-07T11:40:25;15.60;99.90
2112;DHT22;1062;52.538;13.400;2023-05-07T11:42:51;15.90;99.90
2112;DHT22;1062;52.538;13.400;2023-05-07T11:45:23;15.80;99.90
2112;DHT22;1062;52.538;13.400;2023-05-07T11:47:50;15.70;99.90
2112;DHT22;1062;52.538;13.400;2023-05-07T11:50:16;15.50;99.90
2112;DHT22;1062;52.538;13.400;2023-05-07T11:52:50;15.70;99.90
2112;DHT22;1062;52.538;13.400;2023-05-07T11:55:18;15.80;99.90
2112;DHT22;1062;52.538;13.400;2023-05-07T11:57:44;16.40;99.90
2112;DHT22;1062;52.538;13.400;2023-05-07T12:00:10;16.80;99.90
2112;DHT22;1062;52.538;13.400;2023-05-07T12:02:36;16.80;99.90
2112;DHT22;1062;52.538;13.400;2023-05-07T12:05:02;16.70;99.90
2112;DHT22;1062;52.538;13.400;2023-05-07T12:07:27;16.90;99.90
2112;DHT22;1062;52.538;13.400;2023-05-07T12:09:53;16.80;99.90
2112;DHT22;1062;52.538;13.400;2023-05-07T12:12:19;16.90;99.90
2112;DHT22;1062;52.538;13.400;2023-05-07T12:14:45;17.00;99.90
2112;DHT22;1062;52.538;13.400;2023-05-07T12:17:12;16.80;99.90
2112;DHT22;1062;52.538;13.400;2023-05-07T12:19:39;16.90;99.90
2112;DHT22;1062;52.538;13.400;2023-05-07T12:22:07;16.50;99.90
2112;DHT22;1062;52.538;13.400;2023-05-07T12:24:47;16.50;99.90
2112;DHT22;1062;52.538;13.400;2023-05-07T12:27:13;16.50;99.90
2112;DHT22;1062;52.538;13.400;2023-05-07T12:29:39;16.50;99.90
2112;DHT22;1062;52.538;13.400;2023-05-07T12:32:06;16.30;99.90
2112;DHT22;1062;52.538;13.400;2023-05-07T12:34:39;16.30;99.90
2112;DHT22;1062;52.538;13.400;2023-05-07T12:37:04;16.20;99.90
2112;DHT22;1062;52.538;13.400;2023-05-07T12:39:30;16.40;99.90
2112;DHT22;1062;52.538;13.400;2023-05-07T12:41:59;16.60;99.90
2112;DHT22;1062;52.538;13.400;2023-05-07T12:44:34;16.70;99.90
2112;DHT22;1062;52.538;13.400;2023-05-07T12:47:03;17.10;99.90
2112;DHT22;1062;52.538;13.400;2023-05-07T12:49:29;17.00;99.90
2112;DHT22;1062;52.538;13.400;2023-05-07T12:51:55;16.50;99.90
2112;DHT22;1062;52.538;13.400;2023-05-07T12:54:34;16.20;99.90
2112;DHT22;1062;52.538;13.400;2023-05-07T12:57:06;16.20;99.90
2112;DHT22;1062;52.538;13.400;2023-05-07T12:59:41;16.40;99.90
2112;DHT22;1062;52.538;13.400;2023-05-07T13:02:08;16.40;99.90
2112;DHT22;1062;52.538;13.400;2023-05-07T13:04:34;16.30;99.90
2112;DHT22;1062;52.538;13.400;2023-05-07T13:07:00;16.10;99.90
2112;DHT22;1062;52.538;13.400;2023-05-07T13:09:26;16.00;99.90
2112;DHT22;1062;52.538;13.400;2023-05-07T13:11:53;16.20;99.90
2112;DHT22;1062;52.538;13.400;2023-05-07T13:14:18;16.40;99.90
2112;DHT22;1062;52.538;13.400;2023-05-07T13:16:48;16.70;99.90
2112;DHT22;1062;52.538;13.400;2023-05-07T13:19:14;16.70;99.90
2112;DHT22;1062;52.538;13.400;2023-05-07T13:21:40;16.70;99.90
2112;DHT22;1062;52.538;13.400;2023-05-07T13:24:06;16.70;99.90
2112;DHT22;1062;52.538;13.400;2023-05-07T13:26:31;16.90;99.90
2112;DHT22;1062;52.538;13.400;2023-05-07T13:28:57;16.80;99.90
2112;DHT22;1062;52.538;13.400;2023-05-07T13:31:24;16.70;99.90
2112;DHT22;1062;52.538;13.400;2023-05-07T13:33:50;16.40;99.90
2112;DHT22;1062;52.538;13.400;2023-05-07T13:36:16;16.40;99.90
2112;DHT22;1062;52.538;13.400;2023-05-07T13:38:41;16.10;99.90
2112;DHT22;1062;52.538;13.400;2023-05-07T13:41:07;16.40;99.90
2112;DHT22;1062;52.538;13.400;2023-05-07T13:43:32;16.20;99.90
2112;DHT22;1062;52.538;13.400;2023-05-07T13:45:59;16.20;99.90
2112;DHT22;1062;52.538;13.400;2023-05-07T13:48:25;16.20;99.90
2112;DHT22;1062;52.538;13.400;2023-05-07T13:50:50;16.00;99.90
2112;DHT22;1062;52.538;13.400;2023-05-07T13:53:16;15.90;99.90
2112;DHT22;1062;52.538;13.400;2023-05-07T13:55:44;15.90;99.90
2112;DHT22;1062;52.538;13.400;2023-05-07T13:58:09;16.10;99.90
2112;DHT22;1062;52.538;13.400;2023-05-07T14:00:35;16.00;99.90
2112;DHT22;1062;52.538;13.400;2023-05-07T14:03:01;16.00;99.90
2112;DHT22;1062;52.538;13.400;2023-05-07T14:05:27;16.10;99.90
2112;DHT22;1062;52.538;13.400;2023-05-07T14:07:54;16.00;99.90
2112;DHT22;1062;52.538;13.400;2023-05-07T14:10:20;15.80;99.90
2112;DHT22;1062;52.538;13.400;2023-05-07T14:12:46;15.80;99.90
2112;DHT22;1062;52.538;13.400;2023-05-07T14:15:12;15.70;99.90
2112;DHT22;1062;52.538;13.400;2023-05-07T14:17:38;15.90;99.90
2112;DHT22;1062;52.538;13.400;2023-05-07T14:20:04;16.20;99.90
2112;DHT22;1062;52.538;13.400;2023-05-07T14:22:31;16.30;99.90
2112;DHT22;1062;52.538;13.400;2023-05-07T14:24:57;16.40;99.90
2112;DHT22;1062;52.538;13.400;2023-05-07T14:27:22;16.60;99.90
2112;DHT22;1062;52.538;13.400;2023-05-07T14:29:48;16.60;99.90
2112;DHT22;1062;52.538;13.400;2023-05-07T14:32:17;16.60;99.90
2112;DHT22;1062;52.538;13.400;2023-05-07T14:34:43;16.90;99.90
2112;DHT22;1062;52.538;13.400;2023-05-07T14:37:09;16.60;99.90
2112;DHT22;1062;52.538;13.400;2023-05-07T14:39:35;16.60;99.90
2112;DHT22;1062;52.538;13.400;2023-05-07T14:42:01;16.80;99.90
2112;DHT22;1062;52.538;13.400;2023-05-07T14:44:27;17.00;99.90
2112;DHT22;1062;52.538;13.400;2023-05-07T14:46:52;17.20;99.90
2112;DHT22;1062;52.538;13.400;2023-05-07T14:49:18;17.40;99.90
2112;DHT22;1062;52.538;13.400;2023-05-07T14:51:45;17.30;99.90
2112;DHT22;1062;52.538;13.400;2023-05-07T14:54:11;17.30;99.90
2112;DHT22;1062;52.538;13.400;2023-05-07T14:56:36;17.40;99.90
2112;DHT22;1062;52.538;13.400;2023-05-07T14:59:03;17.60;99.90
2112;DHT22;1062;52.538;13.400;2023-05-07T15:01:29;17.90;99.90
2112;DHT22;1062;52.538;13.400;2023-05-07T15:03:55;17.80;99.90
2112;DHT22;1062;52.538;13.400;2023-05-07T15:06:21;17.60;99.90
2112;DHT22;1062;52.538;13.400;2023-05-07T15:08:47;17.40;99.90
2112;DHT22;1062;52.538;13.400;2023-05-07T15:11:14;17.30;99.90
2112;DHT22;1062;52.538;13.400;2023-05-07T15:13:39;17.10;99.90
2112;DHT22;1062;52.538;13.400;2023-05-07T15:16:05;16.80;99.90
2112;DHT22;1062;52.538;13.400;2023-05-07T15:18:30;16.70;99.90
2112;DHT22;1062;52.538;13.400;2023-05-07T15:20:56;16.50;99.90
2112;DHT22;1062;52.538;13.400;2023-05-07T15:23:23;16.40;99.90
2112;DHT22;1062;52.538;13.400;2023-05-07T15:25:48;16.30;99.90
2112;DHT22;1062;52.538;13.400;2023-05-07T15:28:14;16.20;99.90
2112;DHT22;1062;52.538;13.400;2023-05-07T15:30:40;16.00;99.90
2112;DHT22;1062;52.538;13.400;2023-05-07T15:33:05;16.10;99.90
2112;DHT22;1062;52.538;13.400;2023-05-07T15:35:31;16.30;99.90
2112;DHT22;1062;52.538;13.400;2023-05-07T15:37:56;16.50;99.90
2112;DHT22;1062;52.538;13.400;2023-05-07T15:40:22;16.40;99.90
2112;DHT22;1062;52.538;13.400;2023-05-07T15:42:48;16.60;99.90
2112;DHT22;1062;52.538;13.400;2023-05-07T15:45:14;16.50;99.90
2112;DHT22;1062;52.538;13.400;2023-05-07T15:47:39;16.50;99.90
2112;DHT22;1062;52.538;13.400;2023-05-07T15:50:05;16.30;99.90
2112;DHT22;1062;52.538;13.400;2023-05-07T15:52:31;16.00;99.90
2112;DHT22;1062;52.538;13.400;2023-05-07T15:54:58;15.80;99.90
2112;DHT22;1062;52.538;13.400;2023-05-07T15:57:24;15.70;99.90
2112;DHT22;1062;52.538;13.400;2023-05-07T15:59:49;15.80;99.90
2112;DHT22;1062;52.538;13.400;2023-05-07T16:02:15;15.90;99.90
2112;DHT22;1062;52.538;13.400;2023-05-07T16:04:41;15.90;99.90